sensor_id;sensor_type;location;lat;lon;timestamp;temperature;humidity
65036;DHT22;51603;49.300;8.880;2023-10-31T00:02:07;11.90;99.90
65036;DHT22;51603;49.300;8.880;2023-10-31T00:04:33;11.90;99.90
65036;DHT22;51603;49.300;8.880;2023-10-31T00:06:58;11.90;99.90
65036;DHT22;51603;49.300;8.880;2023-10-31T00:09:24;11.90;99.90
65036;DHT22;51603;49.300;8.880;2023-10-31T00:11:49;11.90;99.90
65036;DHT22;51603;49.300;8.880;2023-10-31T00:14:15;11.80;99.90
65036;DHT22;51603;49.300;8.880;2023-10-31T00:16:40;11.80;99.90
65036;DHT22;51603;49.300;8.880;2023-10-31T00:19:06;11.80;99.90
65036;DHT22;51603;49.300;8.880;2023-10-31T00:21:31;11.80;99.90
65036;DHT22;51603;49.300;8.880;2023-10-31T00:23:57;11.70;99.90
65036;DHT22;51603;49.300;8.880;2023-10-31T00:26:22;11.70;99.90
65036;DHT22;51603;49.300;8.880;2023-10-31T00:28:48;11.70;99.90
65036;DHT22;51603;49.300;8.880;2023-10-31T00:31:13;11.70;99.90
65036;DHT22;51603;49.300;8.880;2023-10-31T00:33:39;11.70;99.90
65036;DHT22;51603;49.300;8.880;2023-10-31T00:36:05;11.60;99.90
65036;DHT22;51603;49.300;8.880;2023-10-31T00:38:31;11.60;99.90
65036;DHT22;51603;49.300;8.880;2023-10-31T00:40:56;11.60;99.90
65036;DHT22;51603;49.300;8.880;2023-10-31T00:43:22;11.60;99.90
65036;DHT22;51603;49.300;8.880;2023-10-31T00:45:47;11.50;99.90
65036;DHT22;51603;49.300;8.880;2023-10-31T00:48:13;11.50;99.90
65036;DHT22;51603;49.300;8.880;2023-10-31T00:50:38;11.40;99.90
65036;DHT22;51603;49.300;8.880;2023-10-31T00:53:04;11.40;99.90
65036;DHT22;51603;49.300;8.880;2023-10-31T00:55:29;11.40;99.90
65036;DHT22;51603;49.300;8.880;2023-10-31T00:57:55;11.30;99.90
65036;DHT22;51603;49.300;8.880;2023-10-31T01:00:20;11.30;99.90
65036;DHT22;51603;49.300;8.880;2023-10-31T01:02:46;11.20;99.90
65036;DHT22;51603;49.300;8.880;2023-10-31T01:05:12;11.20;99.90
65036;DHT22;51603;49.300;8.880;2023-10-31T01:07:37;11.20;99.90
65036;DHT22;51603;49.300;8.880;2023-10-31T01:10:03;11.20;99.90
65036;DHT22;51603;49.300;8.880;2023-10-31T01:12:29;11.10;99.90
65036;DHT22;51603;49.300;8.880;2023-10-31T01:14:54;11.10;99.90
65036;DHT22;51603;49.300;8.880;2023-10-31T01:17:21;11.10;99.90
65036;DHT22;51603;49.300;8.880;2023-10-31T01:19:46;11.10;99.90
65036;DHT22;51603;49.300;8.880;2023-10-31T01:22:12;11.10;99.90
65036;DHT22;51603;49.300;8.880;2023-10-31T01:24:37;11.00;99.90
65036;DHT22;51603;49.300;8.880;2023-10-31T01:27:03;11.00;99.90
65036;DHT22;51603;49.300;8.880;2023-10-31T01:29:29;10.90;99.90
65036;DHT22;51603;49.300;8.880;2023-10-31T01:31:54;10.90;99.90
65036;DHT22;51603;49.300;8.880;2023-10-31T01:34:20;10.90;99.90
65036;DHT22;51603;49.300;8.880;2023-10-31T01:36:45;10.90;99.90
65036;DHT22;51603;49.300;8.880;2023-10-31T01:39:11;10.90;99.90
65036;DHT22;51603;49.300;8.880;2023-10-31T01:41:36;10.80;99.90
65036;DHT22;51603;49.300;8.880;2023-10-31T01:44:02;10.80;99.90
65036;DHT22;51603;49.300;8.880;2023-10-31T01:46:27;10.80;99.90
65036;DHT22;51603;49.300;8.880;2023-10-31T01:48:53;10.80;99.90
65036;DHT22;51603;49.300;8.880;2023-10-31T01:51:18;10.80;99.90
65036;DHT22;51603;49.300;8.880;2023-10-31T01:53:44;10.80;99.90
65036;DHT22;51603;49.300;8.880;2023-10-31T01:56:10;10.80;99.90
65036;DHT22;51603;49.300;8.880;2023-10-31T01:58:36;10.80;99.90
65036;DHT22;51603;49.300;8.880;2023-10-31T02:01:04;10.70;99.90
65036;DHT22;51603;49.300;8.880;2023-10-31T02:03:30;10.70;99.90
65036;DHT22;51603;49.300;8.880;2023-10-31T02:05:56;10.70;99.90
65036;DHT22;51603;49.300;8.880;2023-10-31T02:08:22;10.80;99.90
65036;DHT22;51603;49.300;8.880;2023-10-31T02:10:47;10.80;99.90
65036;DHT22;51603;49.300;8.880;2023-10-31T02:13:15;10.80;99.90
65036;DHT22;51603;49.300;8.880;2023-10-31T02:15:41;10.80;99.90
65036;DHT22;51603;49.300;8.880;2023-10-31T02:18:07;10.70;99.90
65036;DHT22;51603;49.300;8.880;2023-10-31T02:20:33;10.70;99.90
65036;DHT22;51603;49.300;8.880;2023-10-31T02:22:59;10.70;99.90
65036;DHT22;51603;49.300;8.880;2023-10-31T02:25:25;10.70;99.90
65036;DHT22;51603;49.300;8.880;2023-10-31T02:27:51;10.70;99.90
65036;DHT22;51603;49.300;8.880;2023-10-31T02:30:16;10.70;99.90
65036;DHT22;51603;49.300;8.880;2023-10-31T02:32:42;10.70;99.90
65036;DHT22;51603;49.300;8.880;2023-10-31T02:35:08;10.70;99.90
65036;DHT22;51603;49.300;8.880;2023-10-31T02:37:33;10.70;99.90
65036;DHT22;51603;49.300;8.880;2023-10-31T02:39:59;10.70;99.90
65036;DHT22;51603;49.300;8.880;2023-10-31T02:42:26;10.70;99.90
65036;DHT22;51603;49.300;8.880;2023-10-31T02:44:51;10.70;99.90
65036;DHT22;51603;49.300;8.880;2023-10-31T02:47:17;10.70;99.90
65036;DHT22;51603;49.300;8.880;2023-10-31T02:49:43;10.60;99.90
65036;DHT22;51603;49.300;8.880;2023-10-31T02:52:08;10.60;99.90
65036;DHT22;51603;49.300;8.880;2023-10-31T02:54:34;10.60;99.90
65036;DHT22;51603;49.300;8.880;2023-10-31T02:56:59;10.60;99.90
65036;DHT22;51603;49.300;8.880;2023-10-31T02:59:25;10.50;99.90
65036;DHT22;51603;49.300;8.880;2023-10-31T03:01:51;10.50;99.90
65036;DHT22;51603;49.300;8.880;2023-10-31T03:04:17;10.40;99.90
65036;DHT22;51603;49.300;8.880;2023-10-31T03:06:42;10.40;99.90
65036;DHT22;51603;49.300;8.880;2023-10-31T03:09:08;10.40;99.90
65036;DHT22;51603;49.300;8.880;2023-10-31T03:11:33;10.40;99.90
65036;DHT22;51603;49.300;8.880;2023-10-31T03:13:59;10.30;99.90
65036;DHT22;51603;49.300;8.880;2023-10-31T03:16:25;10.30;99.90
65036;DHT22;51603;49.300;8.880;2023-10-31T03:18:50;10.30;99.90
65036;DHT22;51603;49.300;8.880;2023-10-31T03:21:16;10.30;99.90
65036;DHT22;51603;49.300;8.880;2023-10-31T03:23:43;10.30;99.90
65036;DHT22;51603;49.300;8.880;2023-10-31T03:26:11;10.20;99.90
65036;DHT22;51603;49.300;8.880;2023-10-31T03:28:36;10.20;99.90
65036;DHT22;51603;49.300;8.880;2023-10-31T03:31:02;10.20;99.90
65036;DHT22;51603;49.300;8.880;2023-10-31T03:33:28;10.20;99.90
65036;DHT22;51603;49.300;8.880;2023-10-31T03:35:53;10.20;99.90
65036;DHT22;51603;49.300;8.880;2023-10-31T03:38:19;10.20;99.90
65036;DHT22;51603;49.300;8.880;2023-10-31T03:40:44;10.20;99.90
65036;DHT22;51603;49.300;8.880;2023-10-31T03:43:10;10.20;99.90
65036;DHT22;51603;49.300;8.880;2023-10-31T03:45:35;10.20;99.90
65036;DHT22;51603;49.300;8.880;2023-10-31T03:48:01;10.20;99.90
65036;DHT22;51603;49.300;8.880;2023-10-31T03:50:26;10.20;99.90
65036;DHT22;51603;49.300;8.880;2023-10-31T03:52:52;10.20;99.90
65036;DHT22;51603;49.300;8.880;2023-10-31T03:55:17;10.20;99.90
65036;DHT22;51603;49.300;8.880;2023-10-31T03:57:44;10.20;99.90
65036;DHT22;51603;49.300;8.880;2023-10-31T04:00:09;10.20;99.90
65036;DHT22;51603;49.300;8.880;2023-10-31T04:02:37;10.20;99.90
65036;DHT22;51603;49.300;8.880;2023-10-31T04:05:02;10.20;99.90
65036;DHT22;51603;49.300;8.880;2023-10-31T04:07:28;10.20;99.90
65036;DHT22;51603;49.300;8.880;2023-10-31T04:09:53;10.10;99.90
65036;DHT22;51603;49.300;8.880;2023-10-31T04:12:19;10.10;99.90
65036;DHT22;51603;49.300;8.880;2023-10-31T04:14:45;10.10;99.90
65036;DHT22;51603;49.300;8.880;2023-10-31T04:17:10;10.20;99.90
65036;DHT22;51603;49.300;8.880;2023-10-31T04:19:36;10.20;99.90
65036;DHT22;51603;49.300;8.880;2023-10-31T04:22:02;10.20;99.90
65036;DHT22;51603;49.300;8.880;2023-10-31T04:24:28;10.20;99.90
65036;DHT22;51603;49.300;8.880;2023-10-31T04:26:53;10.20;99.90
65036;DHT22;51603;49.300;8.880;2023-10-31T04:29:19;10.20;99.90
65036;DHT22;51603;49.300;8.880;2023-10-31T04:31:44;10.30;99.90
65036;DHT22;51603;49.300;8.880;2023-10-31T04:34:10;10.30;99.90
65036;DHT22;51603;49.300;8.880;2023-10-31T04:36:35;10.30;99.90
65036;DHT22;51603;49.300;8.880;2023-10-31T04:39:01;10.30;99.90
65036;DHT22;51603;49.300;8.880;2023-10-31T04:41:27;10.30;99.90
65036;DHT22;51603;49.300;8.880;2023-10-31T04:43:52;10.30;99.90
65036;DHT22;51603;49.300;8.880;2023-10-31T04:46:18;10.30;99.90
65036;DHT22;51603;49.300;8.880;2023-10-31T04:48:43;10.40;99.90
65036;DHT22;51603;49.300;8.880;2023-10-31T04:51:09;10.40;99.90
65036;DHT22;51603;49.300;8.880;2023-10-31T04:53:34;10.40;99.90
65036;DHT22;51603;49.300;8.880;2023-10-31T04:56:00;10.40;99.90
65036;DHT22;51603;49.300;8.880;2023-10-31T04:58:26;10.40;99.90
65036;DHT22;51603;49.300;8.880;2023-10-31T05:00:51;10.40;99.90
65036;DHT22;51603;49.300;8.880;2023-10-31T05:03:17;10.30;99.90
65036;DHT22;51603;49.300;8.880;2023-10-31T05:05:43;10.40;99.90
65036;DHT22;51603;49.300;8.880;2023-10-31T05:08:08;10.40;99.90
65036;DHT22;51603;49.300;8.880;2023-10-31T05:10:34;10.40;99.90
65036;DHT22;51603;49.300;8.880;2023-10-31T05:13:01;10.40;99.90
65036;DHT22;51603;49.300;8.880;2023-10-31T05:15:27;10.40;99.90
65036;DHT22;51603;49.300;8.880;2023-10-31T05:17:53;10.40;99.90
65036;DHT22;51603;49.300;8.880;2023-10-31T05:20:18;10.40;99.90
65036;DHT22;51603;49.300;8.880;2023-10-31T05:22:45;10.40;99.90
65036;DHT22;51603;49.300;8.880;2023-10-31T05:25:11;10.40;99.90
65036;DHT22;51603;49.300;8.880;2023-10-31T05:27:36;10.40;99.90
65036;DHT22;51603;49.300;8.880;2023-10-31T05:30:03;10.40;99.90
65036;DHT22;51603;49.300;8.880;2023-10-31T05:32:29;10.40;99.90
65036;DHT22;51603;49.300;8.880;2023-10-31T05:34:54;10.40;99.90
65036;DHT22;51603;49.300;8.880;2023-10-31T05:37:20;10.40;99.90
65036;DHT22;51603;49.300;8.880;2023-10-31T05:39:45;10.40;99.90
65036;DHT22;51603;49.300;8.880;2023-10-31T05:42:11;10.40;99.90
65036;DHT22;51603;49.300;8.880;2023-10-31T05:44:36;10.40;99.90
65036;DHT22;51603;49.300;8.880;2023-10-31T05:47:02;10.40;99.90
65036;DHT22;51603;49.300;8.880;2023-10-31T05:49:27;10.40;99.90
65036;DHT22;51603;49.300;8.880;2023-10-31T05:51:53;10.40;99.90
65036;DHT22;51603;49.300;8.880;2023-10-31T05:54:19;10.20;99.90
65036;DHT22;51603;49.300;8.880;2023-10-31T05:56:44;10.20;99.90
65036;DHT22;51603;49.300;8.880;2023-10-31T05:59:11;10.10;99.90
65036;DHT22;51603;49.300;8.880;2023-10-31T06:01:36;10.10;99.90
65036;DHT22;51603;49.300;8.880;2023-10-31T06:04:02;10.00;99.90
65036;DHT22;51603;49.300;8.880;2023-10-31T06:06:30;10.00;99.90
65036;DHT22;51603;49.300;8.880;2023-10-31T06:08:55;10.00;99.90
65036;DHT22;51603;49.300;8.880;2023-10-31T06:11:21;9.90;99.90
65036;DHT22;51603;49.300;8.880;2023-10-31T06:13:46;10.00;99.90
65036;DHT22;51603;49.300;8.880;2023-10-31T06:16:13;10.00;99.90
65036;DHT22;51603;49.300;8.880;2023-10-31T06:18:38;9.90;99.90
65036;DHT22;51603;49.300;8.880;2023-10-31T06:21:05;10.00;99.90
65036;DHT22;51603;49.300;8.880;2023-10-31T06:23:31;10.00;99.90
65036;DHT22;51603;49.300;8.880;2023-10-31T06:25:56;10.00;99.90
65036;DHT22;51603;49.300;8.880;2023-10-31T06:28:23;10.00;99.90
65036;DHT22;51603;49.300;8.880;2023-10-31T06:30:48;10.00;99.90
65036;DHT22;51603;49.300;8.880;2023-10-31T06:33:14;10.00;99.90
65036;DHT22;51603;49.300;8.880;2023-10-31T06:35:39;10.00;99.90
65036;DHT22;51603;49.300;8.880;2023-10-31T06:38:05;10.00;99.90
65036;DHT22;51603;49.300;8.880;2023-10-31T06:40:30;10.00;99.90
65036;DHT22;51603;49.300;8.880;2023-10-31T06:42:56;10.00;99.90
65036;DHT22;51603;49.300;8.880;2023-10-31T06:45:22;10.00;99.90
65036;DHT22;51603;49.300;8.880;2023-10-31T06:47:47;10.10;99.90
65036;DHT22;51603;49.300;8.880;2023-10-31T06:50:13;10.10;99.90
65036;DHT22;51603;49.300;8.880;2023-10-31T06:52:38;10.10;99.90
65036;DHT22;51603;49.300;8.880;2023-10-31T06:55:04;10.10;99.90
65036;DHT22;51603;49.300;8.880;2023-10-31T06:57:30;10.10;99.90
65036;DHT22;51603;49.300;8.880;2023-10-31T06:59:56;10.10;99.90
65036;DHT22;51603;49.300;8.880;2023-10-31T07:02:21;10.10;99.90
65036;DHT22;51603;49.300;8.880;2023-10-31T07:04:47;10.10;99.90
65036;DHT22;51603;49.300;8.880;2023-10-31T07:07:12;10.00;99.90
65036;DHT22;51603;49.300;8.880;2023-10-31T07:09:37;10.00;99.90
65036;DHT22;51603;49.300;8.880;2023-10-31T07:12:03;9.90;99.90
65036;DHT22;51603;49.300;8.880;2023-10-31T07:14:29;9.90;99.90
65036;DHT22;51603;49.300;8.880;2023-10-31T07:16:56;9.80;99.90
65036;DHT22;51603;49.300;8.880;2023-10-31T07:19:22;9.80;99.90
65036;DHT22;51603;49.300;8.880;2023-10-31T07:21:47;9.80;99.90
65036;DHT22;51603;49.300;8.880;2023-10-31T07:24:12;9.80;99.90
65036;DHT22;51603;49.300;8.880;2023-10-31T07:26:38;9.80;99.90
65036;DHT22;51603;49.300;8.880;2023-10-31T07:29:03;9.80;99.90
65036;DHT22;51603;49.300;8.880;2023-10-31T07:31:29;9.80;99.90
65036;DHT22;51603;49.300;8.880;2023-10-31T07:33:55;9.80;99.90
65036;DHT22;51603;49.300;8.880;2023-10-31T07:36:21;9.90;99.90
65036;DHT22;51603;49.300;8.880;2023-10-31T07:38:47;9.90;99.90
65036;DHT22;51603;49.300;8.880;2023-10-31T07:41:13;9.90;99.90
65036;DHT22;51603;49.300;8.880;2023-10-31T07:43:38;10.00;99.90
65036;DHT22;51603;49.300;8.880;2023-10-31T07:46:04;10.00;99.90
65036;DHT22;51603;49.300;8.880;2023-10-31T07:48:30;10.00;99.90
65036;DHT22;51603;49.300;8.880;2023-10-31T07:50:55;10.00;99.90
65036;DHT22;51603;49.300;8.880;2023-10-31T07:53:21;10.00;99.90
65036;DHT22;51603;49.300;8.880;2023-10-31T07:55:46;10.10;99.90
65036;DHT22;51603;49.300;8.880;2023-10-31T07:58:12;10.10;99.90
65036;DHT22;51603;49.300;8.880;2023-10-31T08:00:39;10.10;99.90
65036;DHT22;51603;49.300;8.880;2023-10-31T08:03:05;10.10;99.90
65036;DHT22;51603;49.300;8.880;2023-10-31T08:05:30;10.20;99.90
65036;DHT22;51603;49.300;8.880;2023-10-31T08:07:56;10.20;99.90
65036;DHT22;51603;49.300;8.880;2023-10-31T08:10:21;10.20;99.90
65036;DHT22;51603;49.300;8.880;2023-10-31T08:12:47;10.20;99.90
65036;DHT22;51603;49.300;8.880;2023-10-31T08:15:12;10.20;99.90
65036;DHT22;51603;49.300;8.880;2023-10-31T08:17:39;10.20;99.90
65036;DHT22;51603;49.300;8.880;2023-10-31T08:20:05;10.30;99.90
65036;DHT22;51603;49.300;8.880;2023-10-31T08:22:30;10.30;99.90
65036;DHT22;51603;49.300;8.880;2023-10-31T08:24:56;10.30;99.90
65036;DHT22;51603;49.300;8.880;2023-10-31T08:27:21;10.30;99.90
65036;DHT22;51603;49.300;8.880;2023-10-31T08:29:47;10.40;99.90
65036;DHT22;51603;49.300;8.880;2023-10-31T08:32:12;10.40;99.90
65036;DHT22;51603;49.300;8.880;2023-10-31T08:34:38;10.40;99.90
65036;DHT22;51603;49.300;8.880;2023-10-31T08:37:03;10.40;99.90
65036;DHT22;51603;49.300;8.880;2023-10-31T08:39:29;10.40;99.90
65036;DHT22;51603;49.300;8.880;2023-10-31T08:41:57;10.40;99.90
65036;DHT22;51603;49.300;8.880;2023-10-31T08:44:23;10.40;99.90
65036;DHT22;51603;49.300;8.880;2023-10-31T08:46:48;10.50;99.90
65036;DHT22;51603;49.300;8.880;2023-10-31T08:49:15;10.50;99.90
65036;DHT22;51603;49.300;8.880;2023-10-31T08:51:41;10.60;99.90
65036;DHT22;51603;49.300;8.880;2023-10-31T08:54:07;10.60;99.90
65036;DHT22;51603;49.300;8.880;2023-10-31T08:56:32;10.60;99.90
65036;DHT22;51603;49.300;8.880;2023-10-31T08:58:59;10.70;99.90
65036;DHT22;51603;49.300;8.880;2023-10-31T09:01:25;10.70;99.90
65036;DHT22;51603;49.300;8.880;2023-10-31T09:03:51;10.80;99.90
65036;DHT22;51603;49.300;8.880;2023-10-31T09:06:17;10.80;99.90
65036;DHT22;51603;49.300;8.880;2023-10-31T09:08:42;10.90;99.90
65036;DHT22;51603;49.300;8.880;2023-10-31T09:11:07;10.90;99.90
65036;DHT22;51603;49.300;8.880;2023-10-31T09:13:33;10.90;99.90
65036;DHT22;51603;49.300;8.880;2023-10-31T09:15:59;10.90;99.90
65036;DHT22;51603;49.300;8.880;2023-10-31T09:18:25;11.00;99.90
65036;DHT22;51603;49.300;8.880;2023-10-31T09:20:51;11.10;99.90
65036;DHT22;51603;49.300;8.880;2023-10-31T09:23:17;11.20;99.90
65036;DHT22;51603;49.300;8.880;2023-10-31T09:25:43;11.30;99.90
65036;DHT22;51603;49.300;8.880;2023-10-31T09:28:09;11.40;99.90
65036;DHT22;51603;49.300;8.880;2023-10-31T09:30:34;11.50;99.90
65036;DHT22;51603;49.300;8.880;2023-10-31T09:33:00;11.50;99.90
65036;DHT22;51603;49.300;8.880;2023-10-31T09:35:25;11.50;99.90
65036;DHT22;51603;49.300;8.880;2023-10-31T09:37:52;11.50;99.90
65036;DHT22;51603;49.300;8.880;2023-10-31T09:40:17;11.50;99.90
65036;DHT22;51603;49.300;8.880;2023-10-31T09:42:46;11.60;99.90
65036;DHT22;51603;49.300;8.880;2023-10-31T09:45:13;11.60;99.90
65036;DHT22;51603;49.300;8.880;2023-10-31T09:47:39;11.70;99.90
65036;DHT22;51603;49.300;8.880;2023-10-31T09:50:05;11.90;99.90
65036;DHT22;51603;49.300;8.880;2023-10-31T09:52:32;11.90;99.90
65036;DHT22;51603;49.300;8.880;2023-10-31T09:54:57;11.90;99.90
65036;DHT22;51603;49.300;8.880;2023-10-31T09:57:24;11.90;99.90
65036;DHT22;51603;49.300;8.880;2023-10-31T09:59:51;11.90;99.90
65036;DHT22;51603;49.300;8.880;2023-10-31T10:02:17;11.90;99.90
65036;DHT22;51603;49.300;8.880;2023-10-31T10:04:43;11.90;99.90
65036;DHT22;51603;49.300;8.880;2023-10-31T10:07:08;11.90;99.90
65036;DHT22;51603;49.300;8.880;2023-10-31T10:09:34;12.00;99.90
65036;DHT22;51603;49.300;8.880;2023-10-31T10:12:01;12.00;99.90
65036;DHT22;51603;49.300;8.880;2023-10-31T10:14:27;12.10;99.90
65036;DHT22;51603;49.300;8.880;2023-10-31T10:16:59;12.30;99.90
65036;DHT22;51603;49.300;8.880;2023-10-31T10:19:25;12.30;99.90
65036;DHT22;51603;49.300;8.880;2023-10-31T10:21:53;12.40;99.90
65036;DHT22;51603;49.300;8.880;2023-10-31T10:24:20;12.40;99.90
65036;DHT22;51603;49.300;8.880;2023-10-31T10:26:46;12.40;99.90
65036;DHT22;51603;49.300;8.880;2023-10-31T10:29:12;12.50;99.90
65036;DHT22;51603;49.300;8.880;2023-10-31T10:31:37;12.40;99.90
65036;DHT22;51603;49.300;8.880;2023-10-31T10:34:03;12.40;99.90
65036;DHT22;51603;49.300;8.880;2023-10-31T10:36:29;12.40;99.90
65036;DHT22;51603;49.300;8.880;2023-10-31T10:38:57;12.50;99.90
65036;DHT22;51603;49.300;8.880;2023-10-31T10:41:28;12.50;99.90
65036;DHT22;51603;49.300;8.880;2023-10-31T10:44:04;12.50;99.90
65036;DHT22;51603;49.300;8.880;2023-10-31T10:46:34;12.60;99.90
65036;DHT22;51603;49.300;8.880;2023-10-31T10:48:59;12.50;99.90
65036;DHT22;51603;49.300;8.880;2023-10-31T10:51:44;12.50;99.90
65036;DHT22;51603;49.300;8.880;2023-10-31T10:54:26;12.40;99.90
65036;DHT22;51603;49.300;8.880;2023-10-31T10:57:00;12.50;99.90
65036;DHT22;51603;49.300;8.880;2023-10-31T10:59:47;12.40;99.90
65036;DHT22;51603;49.300;8.880;2023-10-31T11:02:18;12.40;99.90
65036;DHT22;51603;49.300;8.880;2023-10-31T11:04:44;12.40;99.90
65036;DHT22;51603;49.300;8.880;2023-10-31T11:07:10;12.40;99.90
65036;DHT22;51603;49.300;8.880;2023-10-31T11:09:36;12.40;99.90
65036;DHT22;51603;49.300;8.880;2023-10-31T11:12:04;12.60;99.90
65036;DHT22;51603;49.300;8.880;2023-10-31T11:14:30;12.70;99.90
65036;DHT22;51603;49.300;8.880;2023-10-31T11:17:01;12.60;99.90
65036;DHT22;51603;49.300;8.880;2023-10-31T11:19:28;12.60;99.90
65036;DHT22;51603;49.300;8.880;2023-10-31T11:22:01;12.60;99.90
65036;DHT22;51603;49.300;8.880;2023-10-31T11:24:28;12.60;99.90
65036;DHT22;51603;49.300;8.880;2023-10-31T11:26:58;12.40;99.90
65036;DHT22;51603;49.300;8.880;2023-10-31T11:29:25;12.40;99.90
65036;DHT22;51603;49.300;8.880;2023-10-31T11:31:51;12.40;99.90
65036;DHT22;51603;49.300;8.880;2023-10-31T11:34:17;12.40;99.90
65036;DHT22;51603;49.300;8.880;2023-10-31T11:36:45;12.30;99.90
65036;DHT22;51603;49.300;8.880;2023-10-31T11:39:13;12.30;99.90
65036;DHT22;51603;49.300;8.880;2023-10-31T11:41:39;12.20;99.90
65036;DHT22;51603;49.300;8.880;2023-10-31T11:44:05;12.20;99.90
65036;DHT22;51603;49.300;8.880;2023-10-31T11:46:31;12.30;99.90
65036;DHT22;51603;49.300;8.880;2023-10-31T11:48:56;12.40;99.90
65036;DHT22;51603;49.300;8.880;2023-10-31T11:51:22;12.40;99.90
65036;DHT22;51603;49.300;8.880;2023-10-31T11:53:49;12.50;99.90
65036;DHT22;51603;49.300;8.880;2023-10-31T11:56:18;12.60;99.90
65036;DHT22;51603;49.300;8.880;2023-10-31T11:58:43;12.70;99.90
65036;DHT22;51603;49.300;8.880;2023-10-31T12:01:10;12.80;99.90
65036;DHT22;51603;49.300;8.880;2023-10-31T12:03:43;12.90;99.90
65036;DHT22;51603;49.300;8.880;2023-10-31T12:06:13;12.90;99.90
65036;DHT22;51603;49.300;8.880;2023-10-31T12:08:41;12.80;99.90
65036;DHT22;51603;49.300;8.880;2023-10-31T12:11:11;12.70;99.90
65036;DHT22;51603;49.300;8.880;2023-10-31T12:13:39;12.70;99.90
65036;DHT22;51603;49.300;8.880;2023-10-31T12:16:07;12.60;99.90
65036;DHT22;51603;49.300;8.880;2023-10-31T12:18:34;12.60;99.90
65036;DHT22;51603;49.300;8.880;2023-10-31T12:21:00;12.50;99.90
65036;DHT22;51603;49.300;8.880;2023-10-31T12:23:26;12.60;99.90
65036;DHT22;51603;49.300;8.880;2023-10-31T12:25:52;12.50;99.90
65036;DHT22;51603;49.300;8.880;2023-10-31T12:28:22;12.50;99.90
65036;DHT22;51603;49.300;8.880;2023-10-31T12:30:49;12.50;99.90
65036;DHT22;51603;49.300;8.880;2023-10-31T12:33:16;12.50;99.90
65036;DHT22;51603;49.300;8.880;2023-10-31T12:35:42;12.50;99.90
65036;DHT22;51603;49.300;8.880;2023-10-31T12:38:12;12.50;99.90
65036;DHT22;51603;49.300;8.880;2023-10-31T12:40:38;12.50;99.90
65036;DHT22;51603;49.300;8.880;2023-10-31T12:43:05;12.50;99.90
65036;DHT22;51603;49.300;8.880;2023-10-31T12:45:30;12.50;99.90
65036;DHT22;51603;49.300;8.880;2023-10-31T12:48:11;12.50;99.90
65036;DHT22;51603;49.300;8.880;2023-10-31T12:50:38;12.60;99.90
65036;DHT22;51603;49.300;8.880;2023-10-31T12:53:08;12.70;99.90
65036;DHT22;51603;49.300;8.880;2023-10-31T12:55:40;12.90;99.90
65036;DHT22;51603;49.300;8.880;2023-10-31T12:58:06;13.20;99.90
65036;DHT22;51603;49.300;8.880;2023-10-31T13:00:34;13.40;99.90
65036;DHT22;51603;49.300;8.880;2023-10-31T13:03:04;13.40;99.90
65036;DHT22;51603;49.300;8.880;2023-10-31T13:05:30;13.30;99.90
65036;DHT22;51603;49.300;8.880;2023-10-31T13:07:57;13.20;99.90
65036;DHT22;51603;49.300;8.880;2023-10-31T13:10:26;13.10;99.90
65036;DHT22;51603;49.300;8.880;2023-10-31T13:12:53;13.00;99.90
65036;DHT22;51603;49.300;8.880;2023-10-31T13:15:22;13.00;99.90
65036;DHT22;51603;49.300;8.880;2023-10-31T13:17:49;13.00;99.90
65036;DHT22;51603;49.300;8.880;2023-10-31T13:20:17;13.10;99.90
65036;DHT22;51603;49.300;8.880;2023-10-31T13:22:43;13.10;99.90
65036;DHT22;51603;49.300;8.880;2023-10-31T13:25:11;13.10;99.90
65036;DHT22;51603;49.300;8.880;2023-10-31T13:27:38;13.00;99.90
65036;DHT22;51603;49.300;8.880;2023-10-31T13:30:05;13.10;99.90
65036;DHT22;51603;49.300;8.880;2023-10-31T13:32:31;13.00;99.90
65036;DHT22;51603;49.300;8.880;2023-10-31T13:34:56;13.00;99.90
65036;DHT22;51603;49.300;8.880;2023-10-31T13:37:22;12.90;99.90
65036;DHT22;51603;49.300;8.880;2023-10-31T13:39:47;12.90;99.90
65036;DHT22;51603;49.300;8.880;2023-10-31T13:42:14;12.90;99.90
65036;DHT22;51603;49.300;8.880;2023-10-31T13:44:40;12.80;99.90
65036;DHT22;51603;49.300;8.880;2023-10-31T13:47:06;12.80;99.90
65036;DHT22;51603;49.300;8.880;2023-10-31T13:49:31;12.80;99.90
65036;DHT22;51603;49.300;8.880;2023-10-31T13:51:57;12.70;99.90
65036;DHT22;51603;49.300;8.880;2023-10-31T13:54:22;12.70;99.90
65036;DHT22;51603;49.300;8.880;2023-10-31T13:56:48;12.70;99.90
65036;DHT22;51603;49.300;8.880;2023-10-31T13:59:13;12.70;99.90
65036;DHT22;51603;49.300;8.880;2023-10-31T14:01:40;12.70;99.90
65036;DHT22;51603;49.300;8.880;2023-10-31T14:04:07;12.70;99.90
65036;DHT22;51603;49.300;8.880;2023-10-31T14:06:33;12.80;99.90
65036;DHT22;51603;49.300;8.880;2023-10-31T14:08:59;12.80;99.90
65036;DHT22;51603;49.300;8.880;2023-10-31T14:11:25;12.90;99.90
65036;DHT22;51603;49.300;8.880;2023-10-31T14:13:50;12.90;99.90
65036;DHT22;51603;49.300;8.880;2023-10-31T14:16:17;12.90;99.90
65036;DHT22;51603;49.300;8.880;2023-10-31T14:18:43;12.90;99.90
65036;DHT22;51603;49.300;8.880;2023-10-31T14:21:08;12.90;99.90
65036;DHT22;51603;49.300;8.880;2023-10-31T14:23:34;12.90;99.90
65036;DHT22;51603;49.300;8.880;2023-10-31T14:26:00;12.90;99.90
65036;DHT22;51603;49.300;8.880;2023-10-31T14:28:25;12.80;99.90
65036;DHT22;51603;49.300;8.880;2023-10-31T14:30:51;12.80;99.90
65036;DHT22;51603;49.300;8.880;2023-10-31T14:33:18;12.70;99.90
65036;DHT22;51603;49.300;8.880;2023-10-31T14:35:43;12.80;99.90
65036;DHT22;51603;49.300;8.880;2023-10-31T14:38:09;12.80;99.90
65036;DHT22;51603;49.300;8.880;2023-10-31T14:40:34;12.80;99.90
65036;DHT22;51603;49.300;8.880;2023-10-31T14:43:00;12.70;99.90
65036;DHT22;51603;49.300;8.880;2023-10-31T14:45:26;12.60;99.90
65036;DHT22;51603;49.300;8.880;2023-10-31T14:47:52;12.60;99.90
65036;DHT22;51603;49.300;8.880;2023-10-31T14:50:18;12.60;99.90
65036;DHT22;51603;49.300;8.880;2023-10-31T14:52:46;12.60;99.90
65036;DHT22;51603;49.300;8.880;2023-10-31T14:55:12;12.60;99.90
65036;DHT22;51603;49.300;8.880;2023-10-31T14:57:37;12.60;99.90
65036;DHT22;51603;49.300;8.880;2023-10-31T15:00:03;12.50;99.90
65036;DHT22;51603;49.300;8.880;2023-10-31T15:02:29;12.50;99.90
65036;DHT22;51603;49.300;8.880;2023-10-31T15:04:54;12.60;99.90
65036;DHT22;51603;49.300;8.880;2023-10-31T15:07:20;12.50;99.90
65036;DHT22;51603;49.300;8.880;2023-10-31T15:09:45;12.40;99.90
65036;DHT22;51603;49.300;8.880;2023-10-31T15:12:13;12.40;99.90
65036;DHT22;51603;49.300;8.880;2023-10-31T15:14:39;12.30;99.90
65036;DHT22;51603;49.300;8.880;2023-10-31T15:17:04;12.30;99.90
65036;DHT22;51603;49.300;8.880;2023-10-31T15:19:29;12.30;99.90
65036;DHT22;51603;49.300;8.880;2023-10-31T15:21:55;12.30;99.90
65036;DHT22;51603;49.300;8.880;2023-10-31T15:24:20;12.20;99.90
65036;DHT22;51603;49.300;8.880;2023-10-31T15:26:46;12.30;99.90